createdAt,value
2023-04-12T00:02:03.019Z,11.87
2023-04-12T00:04:34.478Z,11.74
2023-04-12T00:07:02.848Z,11.61
2023-04-12T00:09:32.059Z,11.49
2023-04-12T00:12:00.107Z,11.36
2023-04-12T00:14:28.017Z,11.32
2023-04-12T00:16:56.073Z,11.33
2023-04-12T00:19:25.876Z,11.35
2023-04-12T00:21:53.802Z,11.41
2023-04-12T00:24:21.695Z,11.43
2023-04-12T00:26:50.966Z,11.52
2023-04-12T00:29:18.883Z,11.59
2023-04-12T00:31:46.840Z,11.64
2023-04-12T00:34:14.776Z,11.72
2023-04-12T00:36:42.686Z,11.75
2023-04-12T00:39:10.767Z,11.80
2023-04-12T00:41:38.760Z,11.81
2023-04-12T00:44:08.194Z,11.81
2023-04-12T00:46:36.249Z,11.77
2023-04-12T00:49:04.196Z,11.75
2023-04-12T00:51:33.769Z,11.82
2023-04-12T00:54:02.239Z,11.87
2023-04-12T00:56:30.254Z,11.93
2023-04-12T00:58:58.256Z,11.68
2023-04-12T01:01:28.295Z,10.94
2023-04-12T01:04:01.150Z,10.27
2023-04-12T01:06:35.622Z,9.89
2023-04-12T01:09:06.092Z,9.71
2023-04-12T01:11:38.680Z,9.59
2023-04-12T01:14:09.123Z,9.66
2023-04-12T01:16:41.028Z,9.61
2023-04-12T01:19:19.842Z,9.55
2023-04-12T01:21:54.886Z,9.49
2023-04-12T01:24:29.093Z,9.59
2023-04-12T01:27:00.757Z,9.55
2023-04-12T01:29:30.245Z,9.62
2023-04-12T01:32:00.371Z,9.62
2023-04-12T01:34:29.669Z,9.57
2023-04-12T01:36:58.212Z,9.68
2023-04-12T01:39:26.440Z,9.71
2023-04-12T01:41:54.330Z,9.74
2023-04-12T01:44:22.262Z,9.77
2023-04-12T01:46:51.836Z,9.86
2023-04-12T01:49:19.739Z,9.90
2023-04-12T01:51:51.423Z,9.81
2023-04-12T01:54:21.322Z,9.98
2023-04-12T01:56:51.955Z,10.05
2023-04-12T01:59:20.075Z,10.05
2023-04-12T02:01:48.094Z,10.10
2023-04-12T02:04:17.508Z,10.15
2023-04-12T02:06:45.499Z,10.18
2023-04-12T02:09:13.434Z,10.25
2023-04-12T02:11:41.310Z,10.30
2023-04-12T02:14:10.186Z,10.37
2023-04-12T02:16:38.133Z,10.44
2023-04-12T02:19:08.981Z,10.50
2023-04-12T02:21:43.060Z,10.53
2023-04-12T02:24:11.335Z,10.49
2023-04-12T02:26:40.185Z,10.39
2023-04-12T02:29:09.121Z,10.29
2023-04-12T02:31:39.072Z,10.16
2023-04-12T02:34:07.122Z,10.15
2023-04-12T02:36:35.321Z,10.19
2023-04-12T02:39:05.176Z,10.23
2023-04-12T02:41:33.049Z,10.24
2023-04-12T02:44:01.155Z,10.25
2023-04-12T02:46:29.132Z,10.29
2023-04-12T02:48:57.085Z,10.31
2023-04-12T02:51:24.992Z,10.33
2023-04-12T02:53:52.852Z,10.38
2023-04-12T02:56:22.104Z,10.37
2023-04-12T02:58:50.014Z,10.34
2023-04-12T03:01:17.892Z,10.37
2023-04-12T03:03:45.836Z,10.38
2023-04-12T03:06:13.770Z,10.44
2023-04-12T03:08:41.660Z,10.57
2023-04-12T03:11:09.534Z,10.70
2023-04-12T03:13:38.813Z,10.78
2023-04-12T03:16:21.688Z,10.79
2023-04-12T03:18:50.222Z,10.75
2023-04-12T03:21:18.263Z,10.70
2023-04-12T03:23:46.371Z,10.71
2023-04-12T03:26:14.250Z,10.71
2023-04-12T03:28:45.913Z,10.66
2023-04-12T03:31:13.830Z,10.64
2023-04-12T03:33:41.709Z,10.62
2023-04-12T03:36:11.130Z,10.62
2023-04-12T03:38:38.970Z,10.59
2023-04-12T03:41:07.447Z,10.61
2023-04-12T03:43:36.137Z,10.62
2023-04-12T03:46:05.924Z,10.65
2023-04-12T03:48:33.855Z,10.63
2023-04-12T03:51:08.607Z,10.60
2023-04-12T03:53:37.056Z,10.63
2023-04-12T03:56:05.015Z,10.65
2023-04-12T03:58:34.039Z,10.68
2023-04-12T04:01:03.900Z,10.72
2023-04-12T04:03:35.071Z,10.75
2023-04-12T04:06:03.482Z,10.78
2023-04-12T04:08:32.620Z,10.78
2023-04-12T04:11:00.564Z,10.80
2023-04-12T04:13:28.444Z,10.83
2023-04-12T04:16:00.714Z,10.84
2023-04-12T04:18:28.601Z,10.89
2023-04-12T04:20:58.662Z,10.92
2023-04-12T04:23:27.802Z,11.02
2023-04-12T04:25:55.757Z,11.07
2023-04-12T04:28:23.625Z,11.15
2023-04-12T04:30:51.756Z,11.22
2023-04-12T04:33:20.097Z,11.35
2023-04-12T04:35:48.016Z,11.42
2023-04-12T04:38:17.347Z,11.50
2023-04-12T04:40:46.606Z,11.57
2023-04-12T04:43:18.608Z,10.76
2023-04-12T04:45:48.784Z,9.49
2023-04-12T04:48:18.780Z,8.87
2023-04-12T04:50:46.742Z,8.60
2023-04-12T04:53:14.645Z,8.56
2023-04-12T04:55:43.929Z,8.57
2023-04-12T04:58:12.788Z,8.63
2023-04-12T05:00:40.855Z,8.70
2023-04-12T05:03:08.750Z,8.77
2023-04-12T05:05:36.846Z,8.74
2023-04-12T05:08:04.872Z,8.71
2023-04-12T05:10:32.774Z,8.71
2023-04-12T05:13:02.028Z,8.73
2023-04-12T05:15:31.431Z,8.77
2023-04-12T05:17:59.378Z,8.80
2023-04-12T05:20:27.468Z,8.82
2023-04-12T05:22:55.766Z,8.91
2023-04-12T05:25:23.639Z,8.92
2023-04-12T05:27:52.281Z,8.98
2023-04-12T05:30:21.659Z,9.06
2023-04-12T05:32:49.549Z,9.16
2023-04-12T05:35:17.595Z,9.04
2023-04-12T05:37:45.534Z,9.32
2023-04-12T05:40:13.768Z,9.37
2023-04-12T05:42:41.645Z,9.54
2023-04-12T05:45:10.951Z,9.50
2023-04-12T05:47:40.268Z,9.35
2023-04-12T05:50:09.173Z,9.15
2023-04-12T05:52:37.929Z,8.98
2023-04-12T05:55:06.761Z,8.88
2023-04-12T05:57:34.651Z,8.80
2023-04-12T06:00:02.749Z,8.70
2023-04-12T06:02:30.900Z,8.67
2023-04-12T06:05:00.754Z,8.64
2023-04-12T06:07:28.797Z,8.62
2023-04-12T06:09:56.678Z,8.65
2023-04-12T06:12:24.600Z,8.67
2023-04-12T06:14:52.498Z,8.74
2023-04-12T06:17:20.458Z,8.81
2023-04-12T06:19:48.702Z,8.89
2023-04-12T06:22:18.133Z,8.99
2023-04-12T06:24:46.076Z,9.12
2023-04-12T06:27:13.939Z,9.19
2023-04-12T06:29:41.810Z,9.30
2023-04-12T06:32:09.642Z,9.36
2023-04-12T06:34:37.740Z,9.35
2023-04-12T06:37:05.656Z,9.48
2023-04-12T06:39:35.024Z,9.59
2023-04-12T06:42:02.928Z,9.71
2023-04-12T06:44:31.011Z,9.79
2023-04-12T06:46:59.200Z,9.89
2023-04-12T06:49:27.152Z,9.92
2023-04-12T06:51:55.094Z,10.02
2023-04-12T06:54:24.024Z,10.05
2023-04-12T06:56:53.320Z,10.08
2023-04-12T06:59:21.231Z,10.07
2023-04-12T07:01:49.189Z,10.22
2023-04-12T07:04:17.187Z,10.32
2023-04-12T07:06:45.168Z,10.33
2023-04-12T07:09:13.090Z,10.16
2023-04-12T07:11:41.198Z,10.02
2023-04-12T07:14:10.534Z,9.87
2023-04-12T07:16:38.752Z,9.78
2023-04-12T07:19:06.821Z,9.91
2023-04-12T07:21:34.682Z,9.98
2023-04-12T07:24:02.639Z,10.05
2023-04-12T07:26:31.445Z,10.12
2023-04-12T07:28:59.953Z,10.20
2023-04-12T07:31:30.606Z,10.40
2023-04-12T07:33:58.628Z,10.60
2023-04-12T07:36:27.570Z,10.72
2023-04-12T07:38:56.574Z,10.77
2023-04-12T07:41:24.971Z,10.82
2023-04-12T07:43:52.824Z,10.91
2023-04-12T07:46:21.088Z,10.91
2023-04-12T07:48:50.500Z,10.96
2023-04-12T07:51:18.598Z,10.99
2023-04-12T07:53:48.428Z,11.00
2023-04-12T07:56:16.456Z,11.07
2023-04-12T07:58:44.412Z,11.13
2023-04-12T08:01:13.217Z,11.18
2023-04-12T08:03:41.442Z,11.17
2023-04-12T08:06:11.161Z,11.25
2023-04-12T08:08:39.280Z,11.29
2023-04-12T08:11:07.423Z,11.31
2023-04-12T08:13:35.550Z,11.32
2023-04-12T08:16:03.490Z,11.31
2023-04-12T08:18:31.414Z,11.31
2023-04-12T08:20:59.420Z,11.14
2023-04-12T08:23:28.934Z,11.09
2023-04-12T08:26:03.274Z,11.02
2023-04-12T08:28:31.376Z,10.94
2023-04-12T08:30:59.794Z,10.84
2023-04-12T08:33:27.930Z,10.82
2023-04-12T08:35:56.712Z,10.76
2023-04-12T08:38:37.244Z,10.75
2023-04-12T08:41:14.749Z,10.77
2023-04-12T08:43:44.360Z,10.39
2023-04-12T08:46:13.756Z,10.66
2023-04-12T08:48:42.111Z,10.58
2023-04-12T08:51:10.239Z,10.51
2023-04-12T08:53:38.217Z,10.47
2023-04-12T08:56:08.328Z,10.46
2023-04-12T08:58:37.672Z,10.45
2023-04-12T09:01:05.965Z,10.57
2023-04-12T09:03:34.734Z,10.65
2023-04-12T09:06:04.073Z,10.78
2023-04-12T09:08:31.951Z,10.95
2023-04-12T09:10:59.854Z,11.14
2023-04-12T09:13:34.687Z,11.24
2023-04-12T09:16:04.066Z,11.44
2023-04-12T09:18:37.269Z,11.59
2023-04-12T09:21:08.628Z,11.70
2023-04-12T09:23:37.390Z,11.72
2023-04-12T09:26:06.825Z,12.05
2023-04-12T09:28:34.909Z,12.29
2023-04-12T09:31:04.676Z,12.33
2023-04-12T09:33:36.659Z,12.35
2023-04-12T09:36:06.086Z,12.33
2023-04-12T09:38:36.875Z,12.27
2023-04-12T09:41:19.670Z,12.16
2023-04-12T09:43:48.794Z,12.00
2023-04-12T09:46:18.419Z,11.74
2023-04-12T09:48:50.294Z,11.17
2023-04-12T09:51:25.452Z,10.92
2023-04-12T09:53:53.586Z,10.69
2023-04-12T09:56:22.946Z,10.50
2023-04-12T09:58:52.331Z,10.39
2023-04-12T10:01:22.847Z,10.44
2023-04-12T10:03:51.736Z,10.52
2023-04-12T10:06:20.557Z,10.74
2023-04-12T10:08:48.454Z,10.84
2023-04-12T10:11:16.646Z,11.00
2023-04-12T10:13:44.709Z,11.16
2023-04-12T10:16:12.643Z,11.31
2023-04-12T10:18:42.430Z,11.45
2023-04-12T10:21:11.088Z,11.44
2023-04-12T10:23:38.981Z,11.86
2023-04-12T10:26:07.091Z,12.05
2023-04-12T10:28:35.043Z,12.31
2023-04-12T10:31:04.969Z,12.59
2023-04-12T10:33:32.862Z,12.72
2023-04-12T10:36:06.923Z,12.92
2023-04-12T10:38:46.394Z,13.21
2023-04-12T10:41:15.877Z,13.44
2023-04-12T10:43:44.057Z,13.66
2023-04-12T10:46:48.329Z,13.94
2023-04-12T10:49:17.229Z,14.05
2023-04-12T10:52:15.111Z,14.06
2023-04-12T10:54:43.077Z,14.05
2023-04-12T10:57:45.708Z,14.06
2023-04-12T11:00:14.922Z,13.95
2023-04-12T11:03:09.852Z,13.73
2023-04-12T11:06:06.456Z,13.66
2023-04-12T11:08:42.344Z,13.68
2023-04-12T11:11:19.839Z,13.78
2023-04-12T11:13:47.801Z,14.11
2023-04-12T11:16:16.253Z,14.37
2023-04-12T11:18:44.323Z,14.07
2023-04-12T11:21:12.402Z,13.57
2023-04-12T11:23:40.661Z,12.93
2023-04-12T11:26:11.256Z,12.39
2023-04-12T11:28:40.977Z,11.99
2023-04-12T11:31:08.913Z,11.78
2023-04-12T11:33:37.336Z,11.88
2023-04-12T11:36:07.185Z,12.10
2023-04-12T11:38:35.992Z,12.48
2023-04-12T11:41:03.894Z,12.83
2023-04-12T11:43:33.241Z,13.01
2023-04-12T11:46:01.205Z,13.60
2023-04-12T11:48:29.095Z,14.04
2023-04-12T11:51:10.395Z,14.38
2023-04-12T11:53:39.150Z,14.56
2023-04-12T11:56:08.285Z,14.44
2023-04-12T11:58:37.590Z,14.29
2023-04-12T12:01:05.880Z,14.46
2023-04-12T12:03:33.976Z,14.43
2023-04-12T12:06:02.177Z,14.43
2023-04-12T12:08:30.442Z,14.42
2023-04-12T12:11:07.190Z,14.19
2023-04-12T12:13:47.780Z,14.40
2023-04-12T12:16:15.877Z,14.40
2023-04-12T12:18:43.885Z,14.14
2023-04-12T12:21:12.543Z,14.07
2023-04-12T12:23:40.443Z,14.40
2023-04-12T12:26:19.005Z,14.50
2023-04-12T12:28:52.428Z,14.28
2023-04-12T12:31:21.164Z,14.34
2023-04-12T12:33:49.103Z,14.25
2023-04-12T12:36:19.730Z,13.98
2023-04-12T12:38:49.270Z,13.96
2023-04-12T12:41:18.346Z,14.01
2023-04-12T12:43:47.192Z,14.22
2023-04-12T12:46:17.676Z,14.43
2023-04-12T12:48:45.674Z,14.66
2023-04-12T12:51:13.841Z,14.85
2023-04-12T12:53:42.298Z,14.87
2023-04-12T12:56:11.125Z,14.55
2023-04-12T12:58:40.909Z,14.09
2023-04-12T13:01:09.208Z,13.75
2023-04-12T13:03:38.597Z,13.52
2023-04-12T13:06:07.567Z,13.42
2023-04-12T13:08:37.242Z,13.53
2023-04-12T13:11:05.663Z,13.68
2023-04-12T13:13:33.560Z,13.83
2023-04-12T13:16:01.449Z,13.89
2023-04-12T13:18:29.377Z,13.85
2023-04-12T13:20:58.633Z,13.83
2023-04-12T13:23:26.588Z,13.88
2023-04-12T13:25:54.529Z,13.95
2023-04-12T13:28:22.633Z,14.12
2023-04-12T13:30:54.646Z,14.33
2023-04-12T13:33:22.727Z,14.61
2023-04-12T13:35:50.750Z,14.87
2023-04-12T13:38:20.048Z,15.11
2023-04-12T13:40:48.179Z,15.22
2023-04-12T13:43:16.693Z,15.42
2023-04-12T13:45:44.938Z,15.66
2023-04-12T13:48:12.944Z,15.88
2023-04-12T13:50:41.151Z,16.16
2023-04-12T13:53:09.169Z,16.29
2023-04-12T13:55:38.616Z,16.42
2023-04-12T13:58:06.492Z,16.47
2023-04-12T14:00:34.520Z,16.30
2023-04-12T14:03:02.541Z,15.96
2023-04-12T14:05:30.712Z,15.48
2023-04-12T14:07:58.646Z,14.97
2023-04-12T14:10:26.529Z,14.53
2023-04-12T14:12:55.757Z,14.21
2023-04-12T14:15:26.674Z,14.05
2023-04-12T14:17:54.639Z,13.93
2023-04-12T14:20:23.863Z,13.85
2023-04-12T14:22:51.812Z,13.77
2023-04-12T14:25:19.882Z,13.71
2023-04-12T14:27:47.779Z,13.60
2023-04-12T14:30:18.949Z,13.45
2023-04-12T14:32:47.818Z,13.48
2023-04-12T14:35:15.918Z,13.44
2023-04-12T14:37:43.985Z,13.38
2023-04-12T14:40:12.505Z,13.19
2023-04-12T14:42:40.474Z,13.04
2023-04-12T14:45:09.806Z,13.00
2023-04-12T14:47:39.201Z,13.01
2023-04-12T14:50:08.320Z,12.95
2023-04-12T14:52:36.209Z,12.78
2023-04-12T14:55:04.890Z,12.65
2023-04-12T14:57:32.836Z,12.49
2023-04-12T15:00:01.358Z,12.38
2023-04-12T15:02:29.375Z,12.30
2023-04-12T15:04:59.180Z,12.21
2023-04-12T15:07:27.333Z,12.18
2023-04-12T15:09:57.417Z,12.23
2023-04-12T15:12:25.610Z,12.28
2023-04-12T15:14:53.940Z,12.33
2023-04-12T15:17:21.922Z,12.40
2023-04-12T15:19:50.238Z,12.39
2023-04-12T15:22:19.566Z,12.34
2023-04-12T15:24:47.496Z,12.28
2023-04-12T15:27:15.438Z,12.27
2023-04-12T15:29:43.315Z,12.28
2023-04-12T15:32:11.260Z,12.21
2023-04-12T15:34:39.160Z,12.19
2023-04-12T15:37:07.406Z,12.21
2023-04-12T15:39:36.868Z,12.24
2023-04-12T15:42:05.412Z,12.27
2023-04-12T15:44:33.965Z,12.26
2023-04-12T15:47:10.982Z,12.17
2023-04-12T15:49:39.943Z,12.23
2023-04-12T15:52:07.983Z,12.19
2023-04-12T15:54:43.784Z,12.21
2023-04-12T15:57:11.963Z,12.21
2023-04-12T15:59:41.949Z,12.23
2023-04-12T16:02:10.707Z,12.23
2023-04-12T16:04:39.392Z,12.26
2023-04-12T16:07:07.681Z,12.22
2023-04-12T16:09:39.729Z,12.17
2023-04-12T16:12:08.043Z,12.12
2023-04-12T16:14:36.922Z,12.12
2023-04-12T16:17:04.874Z,12.13
2023-04-12T16:19:33.410Z,12.23
2023-04-12T16:22:01.745Z,12.33
2023-04-12T16:24:29.761Z,12.38
2023-04-12T16:26:59.396Z,12.45
2023-04-12T16:29:27.243Z,12.48
2023-04-12T16:31:55.234Z,12.47
2023-04-12T16:34:23.298Z,12.58
2023-04-12T16:36:51.639Z,12.66
2023-04-12T16:39:19.555Z,12.72
2023-04-12T16:41:47.480Z,12.70
2023-04-12T16:44:19.440Z,12.83
2023-04-12T16:46:48.072Z,12.85
2023-04-12T16:49:19.036Z,12.84
2023-04-12T16:51:47.698Z,12.82
2023-04-12T16:54:15.651Z,12.83
2023-04-12T16:56:43.635Z,12.75
2023-04-12T16:59:11.590Z,12.67
2023-04-12T17:01:40.908Z,12.62
2023-04-12T17:04:08.911Z,12.49
2023-04-12T17:06:38.549Z,12.56
2023-04-12T17:09:07.473Z,12.55
2023-04-12T17:11:36.224Z,12.57
2023-04-12T17:14:04.188Z,12.53
2023-04-12T17:16:32.438Z,12.47
2023-04-12T17:19:01.807Z,12.46
2023-04-12T17:21:30.531Z,12.48
2023-04-12T17:23:58.618Z,12.49
2023-04-12T17:26:27.898Z,12.47
2023-04-12T17:28:56.809Z,12.47
2023-04-12T17:31:27.044Z,12.46
2023-04-12T17:33:55.049Z,12.39
2023-04-12T17:36:24.451Z,12.33
2023-04-12T17:38:52.539Z,12.30
2023-04-12T17:41:21.474Z,12.28
2023-04-12T17:43:49.389Z,12.30
2023-04-12T17:46:18.063Z,12.23
2023-04-12T17:48:45.992Z,12.33
2023-04-12T17:51:16.122Z,12.31
2023-04-12T17:53:45.760Z,12.32
2023-04-12T17:56:13.674Z,12.34
2023-04-12T17:58:41.773Z,12.33
2023-04-12T18:01:09.763Z,12.36
2023-04-12T18:03:38.416Z,12.36
2023-04-12T18:06:06.992Z,12.44
2023-04-12T18:08:37.530Z,12.61
2023-04-12T18:11:08.036Z,12.72
2023-04-12T18:13:35.929Z,12.79
2023-04-12T18:16:04.113Z,12.98
2023-04-12T18:18:32.046Z,13.07
2023-04-12T18:20:59.941Z,13.12
2023-04-12T18:23:27.790Z,13.19
2023-04-12T18:25:55.725Z,13.26
2023-04-12T18:28:25.412Z,13.34
2023-04-12T18:30:55.524Z,13.36
2023-04-12T18:33:24.716Z,13.34
2023-04-12T18:35:53.049Z,13.42
2023-04-12T18:38:20.954Z,13.52
2023-04-12T18:40:48.806Z,13.51
2023-04-12T18:43:16.845Z,13.52
2023-04-12T18:45:46.160Z,13.56
2023-04-12T18:48:14.402Z,13.58
2023-04-12T18:50:42.296Z,13.61
2023-04-12T18:53:10.681Z,13.67
2023-04-12T18:55:38.556Z,13.69
2023-04-12T18:58:07.105Z,13.72
2023-04-12T19:00:35.008Z,13.75
2023-04-12T19:03:04.402Z,13.78
2023-04-12T19:05:32.430Z,13.80
2023-04-12T19:08:01.559Z,13.84
2023-04-12T19:10:30.875Z,13.85
2023-04-12T19:12:58.938Z,13.87
2023-04-12T19:15:27.137Z,13.90
2023-04-12T19:17:55.116Z,13.91
2023-04-12T19:20:24.926Z,13.87
2023-04-12T19:22:53.146Z,13.91
2023-04-12T19:25:22.252Z,13.92
2023-04-12T19:27:50.198Z,13.90
2023-04-12T19:30:18.400Z,13.91
2023-04-12T19:32:46.459Z,13.95
2023-04-12T19:35:14.479Z,13.97
2023-04-12T19:37:43.764Z,14.01
2023-04-12T19:40:12.461Z,14.00
2023-04-12T19:42:41.618Z,14.01
2023-04-12T19:45:10.655Z,14.00
2023-04-12T19:47:44.661Z,14.03
2023-04-12T19:50:13.801Z,14.05
2023-04-12T19:52:43.263Z,14.05
2023-04-12T19:55:11.540Z,14.06
2023-04-12T19:57:39.615Z,14.04
2023-04-12T20:00:12.780Z,14.04
2023-04-12T20:02:41.449Z,14.02
2023-04-12T20:05:09.935Z,13.98
2023-04-12T20:07:38.136Z,13.98
2023-04-12T20:10:10.334Z,13.96
2023-04-12T20:12:39.011Z,13.86
2023-04-12T20:15:08.277Z,13.91
2023-04-12T20:17:36.323Z,13.89
2023-04-12T20:20:08.754Z,13.86
2023-04-12T20:22:36.771Z,13.84
2023-04-12T20:25:05.772Z,13.84
2023-04-12T20:27:36.701Z,13.84
2023-04-12T20:30:05.209Z,13.82
2023-04-12T20:32:33.676Z,13.83
2023-04-12T20:35:02.706Z,13.81
2023-04-12T20:37:30.631Z,13.77
2023-04-12T20:39:59.338Z,13.83
2023-04-12T20:42:27.272Z,13.84
2023-04-12T20:44:56.532Z,13.81
2023-04-12T20:47:26.003Z,13.79
2023-04-12T20:49:56.140Z,13.77
2023-04-12T20:52:27.656Z,13.72
2023-04-12T20:54:57.151Z,13.71
2023-04-12T20:57:25.649Z,13.69
2023-04-12T20:59:53.571Z,13.64
2023-04-12T21:02:23.247Z,13.63
2023-04-12T21:04:51.511Z,13.64
2023-04-12T21:07:21.233Z,13.63
2023-04-12T21:09:49.668Z,13.56
2023-04-12T21:12:18.256Z,13.58
2023-04-12T21:14:50.066Z,13.57
2023-04-12T21:17:22.239Z,13.51
2023-04-12T21:19:52.129Z,13.55
2023-04-12T21:22:20.002Z,13.57
2023-04-12T21:24:47.977Z,13.54
2023-04-12T21:27:15.870Z,13.51
2023-04-12T21:29:44.767Z,13.50
2023-04-12T21:32:12.696Z,13.51
2023-04-12T21:34:40.538Z,13.49
2023-04-12T21:37:09.805Z,13.49
2023-04-12T21:39:39.178Z,13.46
2023-04-12T21:42:07.471Z,13.46
2023-04-12T21:44:35.827Z,13.43
2023-04-12T21:47:03.775Z,13.44
2023-04-12T21:49:31.709Z,13.42
2023-04-12T21:51:59.617Z,13.40
2023-04-12T21:54:31.318Z,13.40
2023-04-12T21:56:59.274Z,13.34
2023-04-12T21:59:27.417Z,13.40
2023-04-12T22:01:55.419Z,13.41
2023-04-12T22:04:23.411Z,13.44
2023-04-12T22:06:51.635Z,13.44
2023-04-12T22:09:20.337Z,13.45
2023-04-12T22:11:50.286Z,13.48
2023-04-12T22:14:18.166Z,13.52
2023-04-12T22:16:46.843Z,13.36
2023-04-12T22:19:15.435Z,13.46
2023-04-12T22:21:43.364Z,13.44
2023-04-12T22:24:12.228Z,13.40
2023-04-12T22:26:40.078Z,13.42
2023-04-12T22:29:09.858Z,13.43
2023-04-12T22:31:38.524Z,13.45
2023-04-12T22:34:06.482Z,13.48
2023-04-12T22:36:37.541Z,13.45
2023-04-12T22:39:05.901Z,13.42
2023-04-12T22:41:34.051Z,13.35
2023-04-12T22:44:02.173Z,13.16
2023-04-12T22:46:32.260Z,13.38
2023-04-12T22:49:00.486Z,13.08
2023-04-12T22:51:28.462Z,13.36
2023-04-12T22:53:56.883Z,13.35
2023-04-12T22:56:25.528Z,13.34
2023-04-12T22:58:53.815Z,13.38
2023-04-12T23:01:21.744Z,13.40
2023-04-12T23:03:51.775Z,13.42
2023-04-12T23:06:20.625Z,13.46
2023-04-12T23:08:49.655Z,13.50
2023-04-12T23:11:17.886Z,13.54
2023-04-12T23:13:45.895Z,13.54
2023-04-12T23:16:13.835Z,13.54
2023-04-12T23:18:41.738Z,13.55
2023-04-12T23:21:12.208Z,13.55
2023-04-12T23:23:40.640Z,13.50
2023-04-12T23:26:10.012Z,13.49
2023-04-12T23:28:40.320Z,13.49
2023-04-12T23:31:08.471Z,13.47
2023-04-12T23:33:36.384Z,13.48
2023-04-12T23:36:05.153Z,13.44
2023-04-12T23:38:34.696Z,13.46
2023-04-12T23:41:04.005Z,13.41
2023-04-12T23:43:32.972Z,13.44
2023-04-12T23:46:00.976Z,13.45
2023-04-12T23:48:29.084Z,13.45
2023-04-12T23:50:56.966Z,13.48
2023-04-12T23:53:24.989Z,13.49
2023-04-12T23:55:54.377Z,13.51
2023-04-12T23:58:22.543Z,13.50
